sensor_id;sensor_type;location;lat;lon;timestamp;temperature;humidity
1377;DHT22;682;52.502;13.488;2023-10-13T00:01:20;14.40;1.00
1377;DHT22;682;52.502;13.488;2023-10-13T00:03:47;14.40;1.00
1377;DHT22;682;52.502;13.488;2023-10-13T00:06:14;14.40;1.00
1377;DHT22;682;52.502;13.488;2023-10-13T00:08:41;14.40;1.00
1377;DHT22;682;52.502;13.488;2023-10-13T00:11:12;14.40;1.00
1377;DHT22;682;52.502;13.488;2023-10-13T00:13:40;14.40;1.00
1377;DHT22;682;52.502;13.488;2023-10-13T00:16:09;14.30;1.00
1377;DHT22;682;52.502;13.488;2023-10-13T00:18:42;14.30;1.00
1377;DHT22;682;52.502;13.488;2023-10-13T00:21:10;14.40;1.00
1377;DHT22;682;52.502;13.488;2023-10-13T00:23:42;14.40;1.00
1377;DHT22;682;52.502;13.488;2023-10-13T00:26:18;14.40;1.00
1377;DHT22;682;52.502;13.488;2023-10-13T00:28:50;14.30;1.00
1377;DHT22;682;52.502;13.488;2023-10-13T00:31:24;14.30;1.00
1377;DHT22;682;52.502;13.488;2023-10-13T00:33:57;14.30;1.00
1377;DHT22;682;52.502;13.488;2023-10-13T00:36:29;14.20;1.00
1377;DHT22;682;52.502;13.488;2023-10-13T00:38:57;14.20;1.00
1377;DHT22;682;52.502;13.488;2023-10-13T00:41:24;14.30;1.00
1377;DHT22;682;52.502;13.488;2023-10-13T00:44:17;14.30;1.00
1377;DHT22;682;52.502;13.488;2023-10-13T00:46:50;14.40;1.00
1377;DHT22;682;52.502;13.488;2023-10-13T00:49:21;14.30;1.00
1377;DHT22;682;52.502;13.488;2023-10-13T00:51:49;14.40;1.00
1377;DHT22;682;52.502;13.488;2023-10-13T00:54:15;14.30;1.00
1377;DHT22;682;52.502;13.488;2023-10-13T00:56:46;14.30;1.00
1377;DHT22;682;52.502;13.488;2023-10-13T00:59:14;14.20;1.00
1377;DHT22;682;52.502;13.488;2023-10-13T01:01:42;14.10;1.00
1377;DHT22;682;52.502;13.488;2023-10-13T01:04:10;14.20;1.00
1377;DHT22;682;52.502;13.488;2023-10-13T01:06:38;14.30;1.00
1377;DHT22;682;52.502;13.488;2023-10-13T01:09:07;14.20;1.00
1377;DHT22;682;52.502;13.488;2023-10-13T01:11:40;14.20;1.00
1377;DHT22;682;52.502;13.488;2023-10-13T01:14:09;14.20;1.00
1377;DHT22;682;52.502;13.488;2023-10-13T01:16:36;14.30;1.00
1377;DHT22;682;52.502;13.488;2023-10-13T01:19:07;14.20;1.00
1377;DHT22;682;52.502;13.488;2023-10-13T01:21:33;14.30;1.00
1377;DHT22;682;52.502;13.488;2023-10-13T01:24:02;14.40;1.00
1377;DHT22;682;52.502;13.488;2023-10-13T01:26:33;14.30;1.00
1377;DHT22;682;52.502;13.488;2023-10-13T01:29:04;14.30;1.00
1377;DHT22;682;52.502;13.488;2023-10-13T01:31:40;14.30;1.00
1377;DHT22;682;52.502;13.488;2023-10-13T01:34:13;14.30;1.00
1377;DHT22;682;52.502;13.488;2023-10-13T01:36:45;14.20;1.00
1377;DHT22;682;52.502;13.488;2023-10-13T01:39:13;14.20;1.00
1377;DHT22;682;52.502;13.488;2023-10-13T01:41:42;14.20;1.00
1377;DHT22;682;52.502;13.488;2023-10-13T01:44:09;14.20;1.00
1377;DHT22;682;52.502;13.488;2023-10-13T01:46:37;14.20;1.00
1377;DHT22;682;52.502;13.488;2023-10-13T01:49:04;14.30;1.00
1377;DHT22;682;52.502;13.488;2023-10-13T01:51:30;14.30;1.00
1377;DHT22;682;52.502;13.488;2023-10-13T01:53:57;14.20;1.00
1377;DHT22;682;52.502;13.488;2023-10-13T01:56:25;14.20;1.00
1377;DHT22;682;52.502;13.488;2023-10-13T01:58:55;14.20;1.00
1377;DHT22;682;52.502;13.488;2023-10-13T02:01:21;14.20;1.00
1377;DHT22;682;52.502;13.488;2023-10-13T02:03:54;14.20;1.00
1377;DHT22;682;52.502;13.488;2023-10-13T02:06:29;14.20;1.00
1377;DHT22;682;52.502;13.488;2023-10-13T02:08:59;14.20;1.00
1377;DHT22;682;52.502;13.488;2023-10-13T02:11:38;14.20;1.00
1377;DHT22;682;52.502;13.488;2023-10-13T02:14:04;14.30;1.00
1377;DHT22;682;52.502;13.488;2023-10-13T02:16:31;14.30;1.00
1377;DHT22;682;52.502;13.488;2023-10-13T02:18:57;14.30;1.00
1377;DHT22;682;52.502;13.488;2023-10-13T02:21:30;14.30;1.00
1377;DHT22;682;52.502;13.488;2023-10-13T02:23:57;14.30;1.00
1377;DHT22;682;52.502;13.488;2023-10-13T02:26:26;14.20;1.00
1377;DHT22;682;52.502;13.488;2023-10-13T02:29:05;14.10;1.00
1377;DHT22;682;52.502;13.488;2023-10-13T02:31:35;14.10;1.00
1377;DHT22;682;52.502;13.488;2023-10-13T02:34:01;14.00;1.00
1377;DHT22;682;52.502;13.488;2023-10-13T02:36:32;14.10;1.00
1377;DHT22;682;52.502;13.488;2023-10-13T02:39:02;14.00;1.00
1377;DHT22;682;52.502;13.488;2023-10-13T02:41:33;14.00;1.00
1377;DHT22;682;52.502;13.488;2023-10-13T02:44:03;14.10;1.00
1377;DHT22;682;52.502;13.488;2023-10-13T02:46:33;14.10;1.00
1377;DHT22;682;52.502;13.488;2023-10-13T02:49:02;14.20;1.00
1377;DHT22;682;52.502;13.488;2023-10-13T02:51:35;14.30;1.00
1377;DHT22;682;52.502;13.488;2023-10-13T02:54:02;14.40;1.00
1377;DHT22;682;52.502;13.488;2023-10-13T02:56:34;14.30;1.00
1377;DHT22;682;52.502;13.488;2023-10-13T02:59:02;14.30;1.00
1377;DHT22;682;52.502;13.488;2023-10-13T03:01:32;14.40;1.00
1377;DHT22;682;52.502;13.488;2023-10-13T03:04:00;14.30;1.00
1377;DHT22;682;52.502;13.488;2023-10-13T03:06:27;14.40;1.00
1377;DHT22;682;52.502;13.488;2023-10-13T03:08:59;14.30;1.00
1377;DHT22;682;52.502;13.488;2023-10-13T03:11:39;14.30;1.00
1377;DHT22;682;52.502;13.488;2023-10-13T03:14:08;14.30;1.00
1377;DHT22;682;52.502;13.488;2023-10-13T03:16:35;14.30;1.00
1377;DHT22;682;52.502;13.488;2023-10-13T03:19:02;14.30;1.00
1377;DHT22;682;52.502;13.488;2023-10-13T03:21:33;14.30;1.00
1377;DHT22;682;52.502;13.488;2023-10-13T03:24:02;14.30;1.00
1377;DHT22;682;52.502;13.488;2023-10-13T03:26:32;14.30;1.00
1377;DHT22;682;52.502;13.488;2023-10-13T03:29:02;14.30;1.00
1377;DHT22;682;52.502;13.488;2023-10-13T03:31:30;14.30;1.00
1377;DHT22;682;52.502;13.488;2023-10-13T03:34:04;14.30;1.00
1377;DHT22;682;52.502;13.488;2023-10-13T03:36:35;14.30;1.00
1377;DHT22;682;52.502;13.488;2023-10-13T03:39:19;14.40;1.00
1377;DHT22;682;52.502;13.488;2023-10-13T03:41:52;14.40;1.00
1377;DHT22;682;52.502;13.488;2023-10-13T03:44:19;14.30;1.00
1377;DHT22;682;52.502;13.488;2023-10-13T03:46:47;14.30;1.00
1377;DHT22;682;52.502;13.488;2023-10-13T03:49:16;14.30;1.00
1377;DHT22;682;52.502;13.488;2023-10-13T03:51:47;14.40;1.00
1377;DHT22;682;52.502;13.488;2023-10-13T03:54:14;14.50;1.00
1377;DHT22;682;52.502;13.488;2023-10-13T03:56:42;14.50;1.00
1377;DHT22;682;52.502;13.488;2023-10-13T03:59:12;14.50;1.00
1377;DHT22;682;52.502;13.488;2023-10-13T04:01:45;14.50;1.00
1377;DHT22;682;52.502;13.488;2023-10-13T04:04:13;14.50;1.00
1377;DHT22;682;52.502;13.488;2023-10-13T04:06:44;14.50;1.00
1377;DHT22;682;52.502;13.488;2023-10-13T04:09:39;14.50;1.00
1377;DHT22;682;52.502;13.488;2023-10-13T04:12:40;14.50;1.00
1377;DHT22;682;52.502;13.488;2023-10-13T04:15:24;14.60;1.00
1377;DHT22;682;52.502;13.488;2023-10-13T04:18:02;14.60;1.00
1377;DHT22;682;52.502;13.488;2023-10-13T04:20:40;14.60;1.00
1377;DHT22;682;52.502;13.488;2023-10-13T04:23:13;14.60;1.00
1377;DHT22;682;52.502;13.488;2023-10-13T04:25:48;14.60;1.00
1377;DHT22;682;52.502;13.488;2023-10-13T04:28:32;14.70;1.00
1377;DHT22;682;52.502;13.488;2023-10-13T04:31:16;14.70;1.00
1377;DHT22;682;52.502;13.488;2023-10-13T04:34:12;14.70;1.00
1377;DHT22;682;52.502;13.488;2023-10-13T04:36:53;14.80;1.00
1377;DHT22;682;52.502;13.488;2023-10-13T04:39:38;14.80;1.00
1377;DHT22;682;52.502;13.488;2023-10-13T04:42:05;14.80;1.00
1377;DHT22;682;52.502;13.488;2023-10-13T04:44:39;14.80;1.00
1377;DHT22;682;52.502;13.488;2023-10-13T04:47:14;14.80;1.00
1377;DHT22;682;52.502;13.488;2023-10-13T04:49:48;14.90;1.00
1377;DHT22;682;52.502;13.488;2023-10-13T04:52:19;14.90;1.00
1377;DHT22;682;52.502;13.488;2023-10-13T04:55:06;14.90;1.00
1377;DHT22;682;52.502;13.488;2023-10-13T04:58:09;14.90;1.00
1377;DHT22;682;52.502;13.488;2023-10-13T05:00:40;14.80;1.00
1377;DHT22;682;52.502;13.488;2023-10-13T05:03:21;14.80;1.00
1377;DHT22;682;52.502;13.488;2023-10-13T05:06:18;14.90;1.00
1377;DHT22;682;52.502;13.488;2023-10-13T05:09:03;15.00;1.00
1377;DHT22;682;52.502;13.488;2023-10-13T05:11:48;15.10;1.00
1377;DHT22;682;52.502;13.488;2023-10-13T05:14:33;15.20;1.00
1377;DHT22;682;52.502;13.488;2023-10-13T05:17:17;15.30;1.00
1377;DHT22;682;52.502;13.488;2023-10-13T05:20:02;15.20;1.00
1377;DHT22;682;52.502;13.488;2023-10-13T05:22:46;15.20;1.00
1377;DHT22;682;52.502;13.488;2023-10-13T05:25:32;15.20;1.00
1377;DHT22;682;52.502;13.488;2023-10-13T05:28:19;15.30;1.00
1377;DHT22;682;52.502;13.488;2023-10-13T05:31:04;15.30;1.00
1377;DHT22;682;52.502;13.488;2023-10-13T05:33:49;15.20;1.00
1377;DHT22;682;52.502;13.488;2023-10-13T05:36:33;15.30;1.00
1377;DHT22;682;52.502;13.488;2023-10-13T05:39:18;15.30;1.00
1377;DHT22;682;52.502;13.488;2023-10-13T05:42:03;15.30;1.00
1377;DHT22;682;52.502;13.488;2023-10-13T05:44:49;15.30;1.00
1377;DHT22;682;52.502;13.488;2023-10-13T05:47:30;15.40;1.00
1377;DHT22;682;52.502;13.488;2023-10-13T05:50:16;15.40;1.00
1377;DHT22;682;52.502;13.488;2023-10-13T05:53:14;15.40;1.00
1377;DHT22;682;52.502;13.488;2023-10-13T05:56:03;15.30;1.00
1377;DHT22;682;52.502;13.488;2023-10-13T05:58:48;15.30;1.00
1377;DHT22;682;52.502;13.488;2023-10-13T06:01:33;15.30;1.00
1377;DHT22;682;52.502;13.488;2023-10-13T06:04:18;15.40;1.00
1377;DHT22;682;52.502;13.488;2023-10-13T06:07:02;15.40;1.00
1377;DHT22;682;52.502;13.488;2023-10-13T06:09:47;15.40;1.00
1377;DHT22;682;52.502;13.488;2023-10-13T06:12:31;15.30;1.00
1377;DHT22;682;52.502;13.488;2023-10-13T06:15:15;15.40;1.00
1377;DHT22;682;52.502;13.488;2023-10-13T06:18:01;15.40;1.00
1377;DHT22;682;52.502;13.488;2023-10-13T06:20:46;15.50;1.00
1377;DHT22;682;52.502;13.488;2023-10-13T06:23:30;15.60;1.00
1377;DHT22;682;52.502;13.488;2023-10-13T06:26:15;15.50;1.00
1377;DHT22;682;52.502;13.488;2023-10-13T06:29:00;15.50;1.00
1377;DHT22;682;52.502;13.488;2023-10-13T06:31:27;15.60;1.00
1377;DHT22;682;52.502;13.488;2023-10-13T06:33:55;15.60;1.00
1377;DHT22;682;52.502;13.488;2023-10-13T06:36:22;15.60;1.00
1377;DHT22;682;52.502;13.488;2023-10-13T06:38:49;15.50;1.00
1377;DHT22;682;52.502;13.488;2023-10-13T06:41:42;15.60;1.00
1377;DHT22;682;52.502;13.488;2023-10-13T06:44:09;15.60;1.00
1377;DHT22;682;52.502;13.488;2023-10-13T06:46:41;15.70;1.00
1377;DHT22;682;52.502;13.488;2023-10-13T06:49:10;15.80;1.00
1377;DHT22;682;52.502;13.488;2023-10-13T06:51:38;15.80;1.00
1377;DHT22;682;52.502;13.488;2023-10-13T06:54:06;15.70;1.00
1377;DHT22;682;52.502;13.488;2023-10-13T06:56:38;15.80;1.00
1377;DHT22;682;52.502;13.488;2023-10-13T06:59:06;15.70;1.00
1377;DHT22;682;52.502;13.488;2023-10-13T07:01:33;15.80;1.00
1377;DHT22;682;52.502;13.488;2023-10-13T07:04:05;15.90;1.00
1377;DHT22;682;52.502;13.488;2023-10-13T07:06:40;16.10;1.00
1377;DHT22;682;52.502;13.488;2023-10-13T07:09:21;16.20;1.00
1377;DHT22;682;52.502;13.488;2023-10-13T07:12:06;16.30;1.00
1377;DHT22;682;52.502;13.488;2023-10-13T07:14:45;16.50;1.00
1377;DHT22;682;52.502;13.488;2023-10-13T07:17:18;16.70;1.00
1377;DHT22;682;52.502;13.488;2023-10-13T07:19:50;16.80;1.00
1377;DHT22;682;52.502;13.488;2023-10-13T07:22:22;16.90;1.00
1377;DHT22;682;52.502;13.488;2023-10-13T07:24:51;17.10;1.00
1377;DHT22;682;52.502;13.488;2023-10-13T07:27:19;17.20;1.00
1377;DHT22;682;52.502;13.488;2023-10-13T07:29:50;17.20;1.00
1377;DHT22;682;52.502;13.488;2023-10-13T07:32:23;17.30;1.00
1377;DHT22;682;52.502;13.488;2023-10-13T07:34:54;17.40;1.00
1377;DHT22;682;52.502;13.488;2023-10-13T07:37:24;17.40;1.00
1377;DHT22;682;52.502;13.488;2023-10-13T07:39:54;17.30;1.00
1377;DHT22;682;52.502;13.488;2023-10-13T07:42:26;17.30;1.00
1377;DHT22;682;52.502;13.488;2023-10-13T07:44:58;17.40;1.00
1377;DHT22;682;52.502;13.488;2023-10-13T07:47:25;17.60;1.00
1377;DHT22;682;52.502;13.488;2023-10-13T07:49:53;17.70;1.00
1377;DHT22;682;52.502;13.488;2023-10-13T07:52:23;17.80;1.00
1377;DHT22;682;52.502;13.488;2023-10-13T07:55:02;17.90;1.00
1377;DHT22;682;52.502;13.488;2023-10-13T07:57:40;17.90;1.00
1377;DHT22;682;52.502;13.488;2023-10-13T08:00:20;18.00;1.00
1377;DHT22;682;52.502;13.488;2023-10-13T08:03:04;18.00;1.00
1377;DHT22;682;52.502;13.488;2023-10-13T08:05:57;18.10;1.00
1377;DHT22;682;52.502;13.488;2023-10-13T08:08:32;18.00;1.00
1377;DHT22;682;52.502;13.488;2023-10-13T08:11:04;18.00;1.00
1377;DHT22;682;52.502;13.488;2023-10-13T08:13:37;18.10;1.00
1377;DHT22;682;52.502;13.488;2023-10-13T08:16:05;18.10;1.00
1377;DHT22;682;52.502;13.488;2023-10-13T08:18:35;18.20;1.00
1377;DHT22;682;52.502;13.488;2023-10-13T08:21:07;18.20;1.00
1377;DHT22;682;52.502;13.488;2023-10-13T08:23:43;18.30;1.00
1377;DHT22;682;52.502;13.488;2023-10-13T08:26:31;18.30;1.00
1377;DHT22;682;52.502;13.488;2023-10-13T08:29:22;18.40;1.00
1377;DHT22;682;52.502;13.488;2023-10-13T08:32:12;18.60;1.00
1377;DHT22;682;52.502;13.488;2023-10-13T08:35:01;18.70;1.00
1377;DHT22;682;52.502;13.488;2023-10-13T08:37:48;19.00;1.00
1377;DHT22;682;52.502;13.488;2023-10-13T08:40:28;19.10;1.00
1377;DHT22;682;52.502;13.488;2023-10-13T08:43:32;19.00;1.00
1377;DHT22;682;52.502;13.488;2023-10-13T08:46:09;18.90;1.00
1377;DHT22;682;52.502;13.488;2023-10-13T08:48:52;18.80;1.00
1377;DHT22;682;52.502;13.488;2023-10-13T08:51:33;18.70;1.00
1377;DHT22;682;52.502;13.488;2023-10-13T08:54:12;18.80;1.00
1377;DHT22;682;52.502;13.488;2023-10-13T08:56:48;18.80;1.00
1377;DHT22;682;52.502;13.488;2023-10-13T08:59:22;18.90;1.00
1377;DHT22;682;52.502;13.488;2023-10-13T09:01:59;18.90;1.00
1377;DHT22;682;52.502;13.488;2023-10-13T09:04:25;19.00;1.00
1377;DHT22;682;52.502;13.488;2023-10-13T09:07:00;18.90;1.00
1377;DHT22;682;52.502;13.488;2023-10-13T09:09:44;18.90;1.00
1377;DHT22;682;52.502;13.488;2023-10-13T09:12:28;18.90;1.00
1377;DHT22;682;52.502;13.488;2023-10-13T09:15:06;19.00;1.00
1377;DHT22;682;52.502;13.488;2023-10-13T09:17:46;19.00;1.00
1377;DHT22;682;52.502;13.488;2023-10-13T09:20:27;19.10;1.00
1377;DHT22;682;52.502;13.488;2023-10-13T09:23:09;19.30;1.00
1377;DHT22;682;52.502;13.488;2023-10-13T09:25:38;19.20;1.00
1377;DHT22;682;52.502;13.488;2023-10-13T09:28:21;19.00;1.00
1377;DHT22;682;52.502;13.488;2023-10-13T09:30:49;18.90;1.00
1377;DHT22;682;52.502;13.488;2023-10-13T09:33:20;18.90;1.00
1377;DHT22;682;52.502;13.488;2023-10-13T09:35:54;18.90;1.00
1377;DHT22;682;52.502;13.488;2023-10-13T09:38:25;18.80;1.00
1377;DHT22;682;52.502;13.488;2023-10-13T09:40:51;18.70;1.00
1377;DHT22;682;52.502;13.488;2023-10-13T09:43:24;18.60;1.00
1377;DHT22;682;52.502;13.488;2023-10-13T09:45:59;18.60;1.00
1377;DHT22;682;52.502;13.488;2023-10-13T09:48:32;18.50;1.00
1377;DHT22;682;52.502;13.488;2023-10-13T09:51:03;18.50;1.00
1377;DHT22;682;52.502;13.488;2023-10-13T09:53:35;18.40;1.00
1377;DHT22;682;52.502;13.488;2023-10-13T09:56:08;18.40;1.00
1377;DHT22;682;52.502;13.488;2023-10-13T09:58:48;18.40;1.00
1377;DHT22;682;52.502;13.488;2023-10-13T10:01:21;18.50;1.00
1377;DHT22;682;52.502;13.488;2023-10-13T10:04:06;18.50;1.00
1377;DHT22;682;52.502;13.488;2023-10-13T10:06:35;18.50;1.00
1377;DHT22;682;52.502;13.488;2023-10-13T10:09:10;18.40;1.00
1377;DHT22;682;52.502;13.488;2023-10-13T10:12:07;18.40;1.00
1377;DHT22;682;52.502;13.488;2023-10-13T10:15:06;18.40;1.00
1377;DHT22;682;52.502;13.488;2023-10-13T10:17:39;18.40;1.00
1377;DHT22;682;52.502;13.488;2023-10-13T10:20:08;18.40;1.00
1377;DHT22;682;52.502;13.488;2023-10-13T10:22:55;18.40;1.00
1377;DHT22;682;52.502;13.488;2023-10-13T10:25:29;18.40;1.00
1377;DHT22;682;52.502;13.488;2023-10-13T10:28:01;18.40;1.00
1377;DHT22;682;52.502;13.488;2023-10-13T10:30:35;18.40;1.00
1377;DHT22;682;52.502;13.488;2023-10-13T10:33:05;18.50;1.00
1377;DHT22;682;52.502;13.488;2023-10-13T10:35:38;18.40;1.00
1377;DHT22;682;52.502;13.488;2023-10-13T10:38:10;18.40;1.00
1377;DHT22;682;52.502;13.488;2023-10-13T10:40:53;18.40;1.00
1377;DHT22;682;52.502;13.488;2023-10-13T10:43:27;18.30;1.00
1377;DHT22;682;52.502;13.488;2023-10-13T10:46:09;18.30;1.00
1377;DHT22;682;52.502;13.488;2023-10-13T10:48:37;18.40;1.00
1377;DHT22;682;52.502;13.488;2023-10-13T10:51:09;18.40;1.00
1377;DHT22;682;52.502;13.488;2023-10-13T10:53:47;18.40;1.00
1377;DHT22;682;52.502;13.488;2023-10-13T10:56:18;18.40;1.00
1377;DHT22;682;52.502;13.488;2023-10-13T10:58:53;18.40;1.00
1377;DHT22;682;52.502;13.488;2023-10-13T11:01:22;18.30;1.00
1377;DHT22;682;52.502;13.488;2023-10-13T11:03:57;18.30;1.00
1377;DHT22;682;52.502;13.488;2023-10-13T11:06:25;18.20;1.00
1377;DHT22;682;52.502;13.488;2023-10-13T11:09:02;18.20;1.00
1377;DHT22;682;52.502;13.488;2023-10-13T11:11:33;18.20;1.00
1377;DHT22;682;52.502;13.488;2023-10-13T11:14:01;18.30;1.00
1377;DHT22;682;52.502;13.488;2023-10-13T11:16:47;18.30;1.00
1377;DHT22;682;52.502;13.488;2023-10-13T11:19:19;18.30;1.00
1377;DHT22;682;52.502;13.488;2023-10-13T11:21:54;18.30;1.00
1377;DHT22;682;52.502;13.488;2023-10-13T11:24:22;18.40;1.00
1377;DHT22;682;52.502;13.488;2023-10-13T11:26:50;18.40;1.00
1377;DHT22;682;52.502;13.488;2023-10-13T11:29:18;18.40;1.00
1377;DHT22;682;52.502;13.488;2023-10-13T11:31:48;18.40;1.00
1377;DHT22;682;52.502;13.488;2023-10-13T11:34:20;18.50;1.00
1377;DHT22;682;52.502;13.488;2023-10-13T11:36:47;18.50;1.00
1377;DHT22;682;52.502;13.488;2023-10-13T11:39:16;18.50;1.00
1377;DHT22;682;52.502;13.488;2023-10-13T11:41:49;18.50;1.00
1377;DHT22;682;52.502;13.488;2023-10-13T11:44:20;18.60;1.00
1377;DHT22;682;52.502;13.488;2023-10-13T11:46:51;18.60;1.00
1377;DHT22;682;52.502;13.488;2023-10-13T11:49:33;18.60;1.00
1377;DHT22;682;52.502;13.488;2023-10-13T11:52:03;18.60;1.00
1377;DHT22;682;52.502;13.488;2023-10-13T11:54:41;18.60;1.00
1377;DHT22;682;52.502;13.488;2023-10-13T11:57:09;18.60;1.00
1377;DHT22;682;52.502;13.488;2023-10-13T11:59:36;18.60;1.00
1377;DHT22;682;52.502;13.488;2023-10-13T12:02:11;18.60;1.00
1377;DHT22;682;52.502;13.488;2023-10-13T12:04:56;18.70;1.00
1377;DHT22;682;52.502;13.488;2023-10-13T12:07:25;18.80;1.00
1377;DHT22;682;52.502;13.488;2023-10-13T12:10:08;18.80;1.00
1377;DHT22;682;52.502;13.488;2023-10-13T12:12:42;18.90;1.00
1377;DHT22;682;52.502;13.488;2023-10-13T12:15:12;19.10;1.00
1377;DHT22;682;52.502;13.488;2023-10-13T12:17:53;19.10;1.00
1377;DHT22;682;52.502;13.488;2023-10-13T12:20:23;19.30;1.00
1377;DHT22;682;52.502;13.488;2023-10-13T12:22:59;19.40;1.00
1377;DHT22;682;52.502;13.488;2023-10-13T12:25:37;19.40;1.00
1377;DHT22;682;52.502;13.488;2023-10-13T12:28:21;19.50;1.00
1377;DHT22;682;52.502;13.488;2023-10-13T12:30:49;19.60;1.00
1377;DHT22;682;52.502;13.488;2023-10-13T12:33:19;19.70;1.00
1377;DHT22;682;52.502;13.488;2023-10-13T12:35:59;19.80;1.00
1377;DHT22;682;52.502;13.488;2023-10-13T12:38:40;20.00;1.00
1377;DHT22;682;52.502;13.488;2023-10-13T12:41:23;20.00;1.00
1377;DHT22;682;52.502;13.488;2023-10-13T12:44:08;20.10;1.00
1377;DHT22;682;52.502;13.488;2023-10-13T12:46:53;20.10;1.00
1377;DHT22;682;52.502;13.488;2023-10-13T12:49:38;20.20;1.00
1377;DHT22;682;52.502;13.488;2023-10-13T12:52:15;20.30;1.00
1377;DHT22;682;52.502;13.488;2023-10-13T12:54:45;20.40;1.00
1377;DHT22;682;52.502;13.488;2023-10-13T12:57:27;20.50;1.00
1377;DHT22;682;52.502;13.488;2023-10-13T12:59:54;20.60;1.00
1377;DHT22;682;52.502;13.488;2023-10-13T13:02:22;20.80;1.00
1377;DHT22;682;52.502;13.488;2023-10-13T13:04:52;20.90;1.00
1377;DHT22;682;52.502;13.488;2023-10-13T13:07:22;21.10;1.00
1377;DHT22;682;52.502;13.488;2023-10-13T13:09:54;21.10;1.00
1377;DHT22;682;52.502;13.488;2023-10-13T13:12:24;21.20;1.00
1377;DHT22;682;52.502;13.488;2023-10-13T13:14:51;21.30;1.00
1377;DHT22;682;52.502;13.488;2023-10-13T13:17:20;21.40;1.00
1377;DHT22;682;52.502;13.488;2023-10-13T13:19:47;21.50;1.00
1377;DHT22;682;52.502;13.488;2023-10-13T13:22:15;21.70;1.00
1377;DHT22;682;52.502;13.488;2023-10-13T13:24:44;21.80;1.00
1377;DHT22;682;52.502;13.488;2023-10-13T13:27:12;21.90;1.00
1377;DHT22;682;52.502;13.488;2023-10-13T13:29:40;22.00;1.00
1377;DHT22;682;52.502;13.488;2023-10-13T13:32:07;22.10;1.00
1377;DHT22;682;52.502;13.488;2023-10-13T13:34:43;22.30;1.00
1377;DHT22;682;52.502;13.488;2023-10-13T13:37:10;22.50;1.00
1377;DHT22;682;52.502;13.488;2023-10-13T13:39:40;22.50;1.00
1377;DHT22;682;52.502;13.488;2023-10-13T13:42:11;22.50;1.00
1377;DHT22;682;52.502;13.488;2023-10-13T13:44:43;22.40;1.00
1377;DHT22;682;52.502;13.488;2023-10-13T13:47:12;22.30;1.00
1377;DHT22;682;52.502;13.488;2023-10-13T13:49:39;22.20;1.00
1377;DHT22;682;52.502;13.488;2023-10-13T13:52:06;22.20;1.00
1377;DHT22;682;52.502;13.488;2023-10-13T13:54:33;22.10;1.00
1377;DHT22;682;52.502;13.488;2023-10-13T13:57:02;22.10;1.00
1377;DHT22;682;52.502;13.488;2023-10-13T13:59:29;22.00;1.00
1377;DHT22;682;52.502;13.488;2023-10-13T14:02:00;22.00;1.00
1377;DHT22;682;52.502;13.488;2023-10-13T14:04:32;22.20;1.00
1377;DHT22;682;52.502;13.488;2023-10-13T14:06:59;22.50;1.00
1377;DHT22;682;52.502;13.488;2023-10-13T14:09:32;22.70;1.00
1377;DHT22;682;52.502;13.488;2023-10-13T14:12:07;22.90;1.00
1377;DHT22;682;52.502;13.488;2023-10-13T14:14:55;23.00;1.00
1377;DHT22;682;52.502;13.488;2023-10-13T14:17:22;23.10;1.00
1377;DHT22;682;52.502;13.488;2023-10-13T14:19:55;23.20;1.00
1377;DHT22;682;52.502;13.488;2023-10-13T14:22:22;23.20;1.00
1377;DHT22;682;52.502;13.488;2023-10-13T14:24:51;23.00;1.00
1377;DHT22;682;52.502;13.488;2023-10-13T14:27:21;22.90;1.00
1377;DHT22;682;52.502;13.488;2023-10-13T14:29:51;22.90;1.00
1377;DHT22;682;52.502;13.488;2023-10-13T14:32:20;22.90;1.00
1377;DHT22;682;52.502;13.488;2023-10-13T14:34:50;22.90;1.00
1377;DHT22;682;52.502;13.488;2023-10-13T14:37:21;22.90;1.00
1377;DHT22;682;52.502;13.488;2023-10-13T14:39:54;22.90;1.00
1377;DHT22;682;52.502;13.488;2023-10-13T14:42:24;22.90;1.00
1377;DHT22;682;52.502;13.488;2023-10-13T14:44:51;22.90;1.00
1377;DHT22;682;52.502;13.488;2023-10-13T14:47:22;22.90;1.00
1377;DHT22;682;52.502;13.488;2023-10-13T14:49:51;23.00;1.00
1377;DHT22;682;52.502;13.488;2023-10-13T14:52:20;23.00;1.00
1377;DHT22;682;52.502;13.488;2023-10-13T14:54:47;23.00;1.00
1377;DHT22;682;52.502;13.488;2023-10-13T14:57:20;22.90;1.00
1377;DHT22;682;52.502;13.488;2023-10-13T14:59:51;22.80;1.00
1377;DHT22;682;52.502;13.488;2023-10-13T15:02:18;22.60;1.00
1377;DHT22;682;52.502;13.488;2023-10-13T15:04:46;22.60;1.00
1377;DHT22;682;52.502;13.488;2023-10-13T15:07:15;22.50;1.00
1377;DHT22;682;52.502;13.488;2023-10-13T15:09:42;22.40;1.00
1377;DHT22;682;52.502;13.488;2023-10-13T15:12:10;22.40;1.00
1377;DHT22;682;52.502;13.488;2023-10-13T15:14:37;22.50;1.00
1377;DHT22;682;52.502;13.488;2023-10-13T15:17:06;22.40;1.00
1377;DHT22;682;52.502;13.488;2023-10-13T15:19:33;22.40;1.00
1377;DHT22;682;52.502;13.488;2023-10-13T15:22:04;22.40;1.00
1377;DHT22;682;52.502;13.488;2023-10-13T15:24:32;22.20;1.00
1377;DHT22;682;52.502;13.488;2023-10-13T15:27:08;22.30;1.00
1377;DHT22;682;52.502;13.488;2023-10-13T15:29:38;22.20;1.00
1377;DHT22;682;52.502;13.488;2023-10-13T15:32:06;22.20;1.00
1377;DHT22;682;52.502;13.488;2023-10-13T15:34:51;22.20;1.00
1377;DHT22;682;52.502;13.488;2023-10-13T15:37:18;22.10;1.00
1377;DHT22;682;52.502;13.488;2023-10-13T15:39:46;22.10;1.00
1377;DHT22;682;52.502;13.488;2023-10-13T15:42:12;22.00;1.00
1377;DHT22;682;52.502;13.488;2023-10-13T15:44:40;21.90;1.00
1377;DHT22;682;52.502;13.488;2023-10-13T15:47:10;21.80;1.00
1377;DHT22;682;52.502;13.488;2023-10-13T15:49:38;21.80;1.00
1377;DHT22;682;52.502;13.488;2023-10-13T15:52:07;21.80;1.00
1377;DHT22;682;52.502;13.488;2023-10-13T15:54:35;21.80;1.00
1377;DHT22;682;52.502;13.488;2023-10-13T15:57:02;21.70;1.00
1377;DHT22;682;52.502;13.488;2023-10-13T15:59:32;21.60;1.00
1377;DHT22;682;52.502;13.488;2023-10-13T16:02:00;21.60;1.00
1377;DHT22;682;52.502;13.488;2023-10-13T16:04:28;21.60;1.00
1377;DHT22;682;52.502;13.488;2023-10-13T16:06:55;21.60;1.00
1377;DHT22;682;52.502;13.488;2023-10-13T16:09:22;21.50;1.00
1377;DHT22;682;52.502;13.488;2023-10-13T16:11:50;21.50;1.00
1377;DHT22;682;52.502;13.488;2023-10-13T16:14:18;21.50;1.00
1377;DHT22;682;52.502;13.488;2023-10-13T16:16:46;21.50;1.00
1377;DHT22;682;52.502;13.488;2023-10-13T16:19:13;21.50;1.00
1377;DHT22;682;52.502;13.488;2023-10-13T16:21:44;21.50;1.00
1377;DHT22;682;52.502;13.488;2023-10-13T16:24:12;21.60;1.00
1377;DHT22;682;52.502;13.488;2023-10-13T16:26:43;21.50;1.00
1377;DHT22;682;52.502;13.488;2023-10-13T16:29:10;21.50;1.00
1377;DHT22;682;52.502;13.488;2023-10-13T16:31:37;21.50;1.00
1377;DHT22;682;52.502;13.488;2023-10-13T16:34:04;21.40;1.00
1377;DHT22;682;52.502;13.488;2023-10-13T16:36:33;21.40;1.00
1377;DHT22;682;52.502;13.488;2023-10-13T16:39:01;21.40;1.00
1377;DHT22;682;52.502;13.488;2023-10-13T16:41:29;21.40;1.00
1377;DHT22;682;52.502;13.488;2023-10-13T16:43:56;21.40;1.00
1377;DHT22;682;52.502;13.488;2023-10-13T16:46:26;21.40;1.00
1377;DHT22;682;52.502;13.488;2023-10-13T16:48:53;21.30;1.00
1377;DHT22;682;52.502;13.488;2023-10-13T16:51:20;21.30;1.00
1377;DHT22;682;52.502;13.488;2023-10-13T16:53:47;21.30;1.00
1377;DHT22;682;52.502;13.488;2023-10-13T16:56:16;21.30;1.00
1377;DHT22;682;52.502;13.488;2023-10-13T16:58:44;21.30;1.00